sensor_id;sensor_type;location;lat;lon;timestamp;temperature;humidity
3626;DHT22;1827;50.534;8.316;2023-07-13T00:01:34;15.30;99.90
3626;DHT22;1827;50.534;8.316;2023-07-13T00:04:01;15.10;99.90
3626;DHT22;1827;50.534;8.316;2023-07-13T00:06:26;15.10;99.90
3626;DHT22;1827;50.534;8.316;2023-07-13T00:08:55;15.20;99.90
3626;DHT22;1827;50.534;8.316;2023-07-13T00:11:21;15.10;99.90
3626;DHT22;1827;50.534;8.316;2023-07-13T00:13:46;15.20;99.90
3626;DHT22;1827;50.534;8.316;2023-07-13T00:16:13;15.20;99.90
3626;DHT22;1827;50.534;8.316;2023-07-13T00:18:39;15.20;99.90
3626;DHT22;1827;50.534;8.316;2023-07-13T00:21:04;15.20;99.90
3626;DHT22;1827;50.534;8.316;2023-07-13T00:23:35;15.20;99.90
3626;DHT22;1827;50.534;8.316;2023-07-13T00:26:02;15.20;99.90
3626;DHT22;1827;50.534;8.316;2023-07-13T00:28:27;15.10;99.90
3626;DHT22;1827;50.534;8.316;2023-07-13T00:30:53;15.10;99.90
3626;DHT22;1827;50.534;8.316;2023-07-13T00:33:19;15.00;99.90
3626;DHT22;1827;50.534;8.316;2023-07-13T00:35:45;15.00;99.90
3626;DHT22;1827;50.534;8.316;2023-07-13T00:38:11;14.90;99.90
3626;DHT22;1827;50.534;8.316;2023-07-13T00:40:36;14.80;99.90
3626;DHT22;1827;50.534;8.316;2023-07-13T00:43:02;14.70;99.90
3626;DHT22;1827;50.534;8.316;2023-07-13T00:47:55;14.60;99.90
3626;DHT22;1827;50.534;8.316;2023-07-13T00:50:21;14.50;99.90
3626;DHT22;1827;50.534;8.316;2023-07-13T00:52:48;14.40;99.90
3626;DHT22;1827;50.534;8.316;2023-07-13T00:55:14;14.40;1.00
3626;DHT22;1827;50.534;8.316;2023-07-13T00:57:41;14.40;1.00
3626;DHT22;1827;50.534;8.316;2023-07-13T01:00:07;14.20;1.00
3626;DHT22;1827;50.534;8.316;2023-07-13T01:02:38;14.20;1.00
3626;DHT22;1827;50.534;8.316;2023-07-13T01:05:08;14.10;1.00
3626;DHT22;1827;50.534;8.316;2023-07-13T01:07:34;14.00;1.00
3626;DHT22;1827;50.534;8.316;2023-07-13T01:10:00;14.10;1.00
3626;DHT22;1827;50.534;8.316;2023-07-13T01:12:25;13.90;1.00
3626;DHT22;1827;50.534;8.316;2023-07-13T01:14:56;13.90;1.00
3626;DHT22;1827;50.534;8.316;2023-07-13T01:17:22;13.70;1.00
3626;DHT22;1827;50.534;8.316;2023-07-13T01:19:47;13.70;1.00
3626;DHT22;1827;50.534;8.316;2023-07-13T01:22:14;13.70;1.00
3626;DHT22;1827;50.534;8.316;2023-07-13T01:24:41;13.70;1.00
3626;DHT22;1827;50.534;8.316;2023-07-13T01:27:08;13.60;1.00
3626;DHT22;1827;50.534;8.316;2023-07-13T01:29:34;13.60;1.00
3626;DHT22;1827;50.534;8.316;2023-07-13T01:32:12;13.50;1.00
3626;DHT22;1827;50.534;8.316;2023-07-13T01:34:38;13.50;1.00
3626;DHT22;1827;50.534;8.316;2023-07-13T01:37:08;13.50;1.00
3626;DHT22;1827;50.534;8.316;2023-07-13T01:39:34;13.30;1.00
3626;DHT22;1827;50.534;8.316;2023-07-13T01:41:59;13.30;1.00
3626;DHT22;1827;50.534;8.316;2023-07-13T01:44:25;13.30;1.00
3626;DHT22;1827;50.534;8.316;2023-07-13T01:46:51;13.20;1.00
3626;DHT22;1827;50.534;8.316;2023-07-13T01:49:17;13.20;1.00
3626;DHT22;1827;50.534;8.316;2023-07-13T01:51:42;13.20;1.00
3626;DHT22;1827;50.534;8.316;2023-07-13T01:54:10;13.10;1.00
3626;DHT22;1827;50.534;8.316;2023-07-13T01:56:35;13.20;1.00
3626;DHT22;1827;50.534;8.316;2023-07-13T01:59:01;13.30;1.00
3626;DHT22;1827;50.534;8.316;2023-07-13T02:01:28;13.30;1.00
3626;DHT22;1827;50.534;8.316;2023-07-13T02:03:53;13.20;1.00
3626;DHT22;1827;50.534;8.316;2023-07-13T02:06:19;13.20;1.00
3626;DHT22;1827;50.534;8.316;2023-07-13T02:08:47;13.20;1.00
3626;DHT22;1827;50.534;8.316;2023-07-13T02:11:12;13.00;1.00
3626;DHT22;1827;50.534;8.316;2023-07-13T02:13:38;13.00;1.00
3626;DHT22;1827;50.534;8.316;2023-07-13T02:16:04;12.90;1.00
3626;DHT22;1827;50.534;8.316;2023-07-13T02:18:29;13.00;1.00
3626;DHT22;1827;50.534;8.316;2023-07-13T02:20:55;12.90;1.00
3626;DHT22;1827;50.534;8.316;2023-07-13T02:23:21;13.00;1.00
3626;DHT22;1827;50.534;8.316;2023-07-13T02:25:46;13.00;1.00
3626;DHT22;1827;50.534;8.316;2023-07-13T02:28:12;12.80;1.00
3626;DHT22;1827;50.534;8.316;2023-07-13T02:30:37;12.60;1.00
3626;DHT22;1827;50.534;8.316;2023-07-13T02:33:03;12.60;1.00
3626;DHT22;1827;50.534;8.316;2023-07-13T02:35:29;12.60;1.00
3626;DHT22;1827;50.534;8.316;2023-07-13T02:37:57;12.60;1.00
3626;DHT22;1827;50.534;8.316;2023-07-13T02:40:23;12.50;1.00
3626;DHT22;1827;50.534;8.316;2023-07-13T02:42:50;12.50;1.00
3626;DHT22;1827;50.534;8.316;2023-07-13T02:45:16;12.40;1.00
3626;DHT22;1827;50.534;8.316;2023-07-13T02:47:41;12.40;1.00
3626;DHT22;1827;50.534;8.316;2023-07-13T02:50:07;12.40;1.00
3626;DHT22;1827;50.534;8.316;2023-07-13T02:52:33;12.40;1.00
3626;DHT22;1827;50.534;8.316;2023-07-13T02:54:59;12.20;1.00
3626;DHT22;1827;50.534;8.316;2023-07-13T02:57:25;12.20;1.00
3626;DHT22;1827;50.534;8.316;2023-07-13T02:59:50;12.10;1.00
3626;DHT22;1827;50.534;8.316;2023-07-13T03:02:16;12.10;1.00
3626;DHT22;1827;50.534;8.316;2023-07-13T03:04:42;12.10;1.00
3626;DHT22;1827;50.534;8.316;2023-07-13T03:07:07;11.90;1.00
3626;DHT22;1827;50.534;8.316;2023-07-13T03:09:36;11.80;1.00
3626;DHT22;1827;50.534;8.316;2023-07-13T03:12:03;11.80;1.00
3626;DHT22;1827;50.534;8.316;2023-07-13T03:14:31;11.80;1.00
3626;DHT22;1827;50.534;8.316;2023-07-13T03:16:58;11.90;1.00
3626;DHT22;1827;50.534;8.316;2023-07-13T03:19:27;11.80;1.00
3626;DHT22;1827;50.534;8.316;2023-07-13T03:21:53;11.90;1.00
3626;DHT22;1827;50.534;8.316;2023-07-13T03:24:19;11.80;1.00
3626;DHT22;1827;50.534;8.316;2023-07-13T03:26:45;11.70;1.00
3626;DHT22;1827;50.534;8.316;2023-07-13T03:29:11;11.70;1.00
3626;DHT22;1827;50.534;8.316;2023-07-13T03:31:37;11.70;1.00
3626;DHT22;1827;50.534;8.316;2023-07-13T03:34:03;11.70;1.00
3626;DHT22;1827;50.534;8.316;2023-07-13T03:36:30;11.60;1.00
3626;DHT22;1827;50.534;8.316;2023-07-13T03:39:00;11.50;1.00
3626;DHT22;1827;50.534;8.316;2023-07-13T03:41:43;11.50;1.00
3626;DHT22;1827;50.534;8.316;2023-07-13T03:44:08;11.50;1.00
3626;DHT22;1827;50.534;8.316;2023-07-13T03:46:52;11.50;1.00
3626;DHT22;1827;50.534;8.316;2023-07-13T03:49:18;11.50;1.00
3626;DHT22;1827;50.534;8.316;2023-07-13T03:51:43;11.50;1.00
3626;DHT22;1827;50.534;8.316;2023-07-13T03:54:09;11.50;1.00
3626;DHT22;1827;50.534;8.316;2023-07-13T03:56:34;11.50;1.00
3626;DHT22;1827;50.534;8.316;2023-07-13T03:59:02;11.50;1.00
3626;DHT22;1827;50.534;8.316;2023-07-13T04:01:29;11.50;1.00
3626;DHT22;1827;50.534;8.316;2023-07-13T04:03:54;11.50;1.00
3626;DHT22;1827;50.534;8.316;2023-07-13T04:06:25;11.60;1.00
3626;DHT22;1827;50.534;8.316;2023-07-13T04:08:52;11.70;1.00
3626;DHT22;1827;50.534;8.316;2023-07-13T04:11:19;11.70;1.00
3626;DHT22;1827;50.534;8.316;2023-07-13T04:13:45;11.80;1.00
3626;DHT22;1827;50.534;8.316;2023-07-13T04:16:11;11.70;1.00
3626;DHT22;1827;50.534;8.316;2023-07-13T04:18:36;11.70;1.00
3626;DHT22;1827;50.534;8.316;2023-07-13T04:21:02;11.80;1.00
3626;DHT22;1827;50.534;8.316;2023-07-13T04:23:27;11.80;1.00
3626;DHT22;1827;50.534;8.316;2023-07-13T04:25:53;11.90;1.00
3626;DHT22;1827;50.534;8.316;2023-07-13T04:28:22;12.10;1.00
3626;DHT22;1827;50.534;8.316;2023-07-13T04:30:48;12.30;1.00
3626;DHT22;1827;50.534;8.316;2023-07-13T04:33:14;12.20;1.00
3626;DHT22;1827;50.534;8.316;2023-07-13T04:35:40;12.20;1.00
3626;DHT22;1827;50.534;8.316;2023-07-13T04:38:05;12.30;1.00
3626;DHT22;1827;50.534;8.316;2023-07-13T04:40:31;12.30;1.00
3626;DHT22;1827;50.534;8.316;2023-07-13T04:42:57;12.40;1.00
3626;DHT22;1827;50.534;8.316;2023-07-13T04:45:23;12.40;1.00
3626;DHT22;1827;50.534;8.316;2023-07-13T04:47:49;12.50;1.00
3626;DHT22;1827;50.534;8.316;2023-07-13T04:50:15;12.70;1.00
3626;DHT22;1827;50.534;8.316;2023-07-13T04:52:45;12.80;1.00
3626;DHT22;1827;50.534;8.316;2023-07-13T04:55:10;13.00;1.00
3626;DHT22;1827;50.534;8.316;2023-07-13T04:57:36;13.00;1.00
3626;DHT22;1827;50.534;8.316;2023-07-13T05:00:02;13.10;1.00
3626;DHT22;1827;50.534;8.316;2023-07-13T05:02:32;13.10;1.00
3626;DHT22;1827;50.534;8.316;2023-07-13T05:04:58;13.00;1.00
3626;DHT22;1827;50.534;8.316;2023-07-13T05:07:24;13.10;1.00
3626;DHT22;1827;50.534;8.316;2023-07-13T05:09:50;13.20;1.00
3626;DHT22;1827;50.534;8.316;2023-07-13T05:12:16;13.40;1.00
3626;DHT22;1827;50.534;8.316;2023-07-13T05:14:42;13.50;99.90
3626;DHT22;1827;50.534;8.316;2023-07-13T05:17:08;13.60;99.90
3626;DHT22;1827;50.534;8.316;2023-07-13T05:19:33;13.70;99.90
3626;DHT22;1827;50.534;8.316;2023-07-13T05:21:59;13.80;99.90
3626;DHT22;1827;50.534;8.316;2023-07-13T05:24:25;14.10;99.90
3626;DHT22;1827;50.534;8.316;2023-07-13T05:26:51;14.20;99.90
3626;DHT22;1827;50.534;8.316;2023-07-13T05:29:17;14.30;99.90
3626;DHT22;1827;50.534;8.316;2023-07-13T05:31:42;14.40;99.90
3626;DHT22;1827;50.534;8.316;2023-07-13T05:34:08;14.40;99.90
3626;DHT22;1827;50.534;8.316;2023-07-13T05:36:33;14.90;99.90
3626;DHT22;1827;50.534;8.316;2023-07-13T05:39:02;15.20;99.90
3626;DHT22;1827;50.534;8.316;2023-07-13T05:41:28;15.20;99.90
3626;DHT22;1827;50.534;8.316;2023-07-13T05:43:54;15.60;99.90
3626;DHT22;1827;50.534;8.316;2023-07-13T05:46:19;15.80;99.90
3626;DHT22;1827;50.534;8.316;2023-07-13T05:48:45;15.60;99.90
3626;DHT22;1827;50.534;8.316;2023-07-13T05:51:10;16.00;99.90
3626;DHT22;1827;50.534;8.316;2023-07-13T05:53:36;16.70;99.90
3626;DHT22;1827;50.534;8.316;2023-07-13T05:56:01;17.10;99.90
3626;DHT22;1827;50.534;8.316;2023-07-13T05:58:27;17.10;99.90
3626;DHT22;1827;50.534;8.316;2023-07-13T06:01:00;17.50;99.90
3626;DHT22;1827;50.534;8.316;2023-07-13T06:03:26;17.50;99.90
3626;DHT22;1827;50.534;8.316;2023-07-13T06:05:51;17.60;99.90
3626;DHT22;1827;50.534;8.316;2023-07-13T06:08:17;17.80;99.90
3626;DHT22;1827;50.534;8.316;2023-07-13T06:10:42;18.10;99.90
3626;DHT22;1827;50.534;8.316;2023-07-13T06:13:08;18.40;99.90
3626;DHT22;1827;50.534;8.316;2023-07-13T06:15:33;18.50;99.90
3626;DHT22;1827;50.534;8.316;2023-07-13T06:17:59;19.00;99.90
3626;DHT22;1827;50.534;8.316;2023-07-13T06:20:24;19.00;99.90
3626;DHT22;1827;50.534;8.316;2023-07-13T06:22:50;18.90;99.90
3626;DHT22;1827;50.534;8.316;2023-07-13T06:25:16;19.40;99.90
3626;DHT22;1827;50.534;8.316;2023-07-13T06:27:42;19.30;99.90
3626;DHT22;1827;50.534;8.316;2023-07-13T06:30:08;19.70;99.90
3626;DHT22;1827;50.534;8.316;2023-07-13T06:32:34;20.40;99.90
3626;DHT22;1827;50.534;8.316;2023-07-13T06:35:00;20.50;99.90
3626;DHT22;1827;50.534;8.316;2023-07-13T06:37:25;20.50;99.90
3626;DHT22;1827;50.534;8.316;2023-07-13T06:39:51;20.50;99.90
3626;DHT22;1827;50.534;8.316;2023-07-13T06:42:16;20.10;99.90
3626;DHT22;1827;50.534;8.316;2023-07-13T06:44:44;20.40;99.90
3626;DHT22;1827;50.534;8.316;2023-07-13T06:47:09;20.70;99.90
3626;DHT22;1827;50.534;8.316;2023-07-13T06:49:35;20.80;99.90
3626;DHT22;1827;50.534;8.316;2023-07-13T06:52:00;21.20;99.90
3626;DHT22;1827;50.534;8.316;2023-07-13T06:54:26;21.30;99.90
3626;DHT22;1827;50.534;8.316;2023-07-13T06:56:52;21.50;99.90
3626;DHT22;1827;50.534;8.316;2023-07-13T06:59:18;21.70;99.90
3626;DHT22;1827;50.534;8.316;2023-07-13T07:01:44;21.40;99.90
3626;DHT22;1827;50.534;8.316;2023-07-13T07:04:10;21.50;99.90
3626;DHT22;1827;50.534;8.316;2023-07-13T07:06:35;21.60;99.90
3626;DHT22;1827;50.534;8.316;2023-07-13T07:09:01;21.50;99.90
3626;DHT22;1827;50.534;8.316;2023-07-13T07:11:26;22.40;99.90
3626;DHT22;1827;50.534;8.316;2023-07-13T07:13:52;22.50;99.90
3626;DHT22;1827;50.534;8.316;2023-07-13T07:16:18;22.50;99.90
3626;DHT22;1827;50.534;8.316;2023-07-13T07:18:44;21.90;99.90
3626;DHT22;1827;50.534;8.316;2023-07-13T07:21:10;22.00;99.90
3626;DHT22;1827;50.534;8.316;2023-07-13T07:23:35;21.30;99.90
3626;DHT22;1827;50.534;8.316;2023-07-13T07:26:01;21.00;99.90
3626;DHT22;1827;50.534;8.316;2023-07-13T07:28:27;20.40;99.90
3626;DHT22;1827;50.534;8.316;2023-07-13T07:30:54;20.90;99.90
3626;DHT22;1827;50.534;8.316;2023-07-13T07:33:20;21.20;99.90
3626;DHT22;1827;50.534;8.316;2023-07-13T07:35:45;21.60;99.90
3626;DHT22;1827;50.534;8.316;2023-07-13T07:38:11;21.90;99.90
3626;DHT22;1827;50.534;8.316;2023-07-13T07:40:38;22.40;99.90
3626;DHT22;1827;50.534;8.316;2023-07-13T07:43:03;22.30;99.90
3626;DHT22;1827;50.534;8.316;2023-07-13T07:45:29;22.30;99.90
3626;DHT22;1827;50.534;8.316;2023-07-13T07:47:54;22.20;99.90
3626;DHT22;1827;50.534;8.316;2023-07-13T07:50:24;22.30;99.90
3626;DHT22;1827;50.534;8.316;2023-07-13T07:52:50;23.20;99.90
3626;DHT22;1827;50.534;8.316;2023-07-13T07:55:15;23.10;99.90
3626;DHT22;1827;50.534;8.316;2023-07-13T07:57:41;23.20;99.90
3626;DHT22;1827;50.534;8.316;2023-07-13T08:00:07;23.20;99.90
3626;DHT22;1827;50.534;8.316;2023-07-13T08:02:40;23.40;99.90
3626;DHT22;1827;50.534;8.316;2023-07-13T08:05:09;23.70;99.90
3626;DHT22;1827;50.534;8.316;2023-07-13T08:07:36;23.30;99.90
3626;DHT22;1827;50.534;8.316;2023-07-13T08:10:01;22.60;99.90
3626;DHT22;1827;50.534;8.316;2023-07-13T08:12:27;22.80;99.90
3626;DHT22;1827;50.534;8.316;2023-07-13T08:14:52;22.90;99.90
3626;DHT22;1827;50.534;8.316;2023-07-13T08:17:23;23.00;99.90
3626;DHT22;1827;50.534;8.316;2023-07-13T08:19:49;22.40;99.90
3626;DHT22;1827;50.534;8.316;2023-07-13T08:22:14;22.60;99.90
3626;DHT22;1827;50.534;8.316;2023-07-13T08:24:40;22.90;99.90
3626;DHT22;1827;50.534;8.316;2023-07-13T08:27:08;23.00;99.90
3626;DHT22;1827;50.534;8.316;2023-07-13T08:29:33;23.40;99.90
3626;DHT22;1827;50.534;8.316;2023-07-13T08:31:59;23.50;99.90
3626;DHT22;1827;50.534;8.316;2023-07-13T08:34:25;23.50;99.90
3626;DHT22;1827;50.534;8.316;2023-07-13T08:36:50;23.80;99.90
3626;DHT22;1827;50.534;8.316;2023-07-13T08:39:16;24.00;99.90
3626;DHT22;1827;50.534;8.316;2023-07-13T08:41:42;24.10;99.90
3626;DHT22;1827;50.534;8.316;2023-07-13T08:44:17;24.30;99.90
3626;DHT22;1827;50.534;8.316;2023-07-13T08:46:45;24.20;99.90
3626;DHT22;1827;50.534;8.316;2023-07-13T08:49:16;24.20;99.90
3626;DHT22;1827;50.534;8.316;2023-07-13T08:51:58;24.20;99.90
3626;DHT22;1827;50.534;8.316;2023-07-13T08:54:44;24.50;99.90
3626;DHT22;1827;50.534;8.316;2023-07-13T08:57:13;25.00;99.90
3626;DHT22;1827;50.534;8.316;2023-07-13T08:59:39;25.20;99.90
3626;DHT22;1827;50.534;8.316;2023-07-13T09:02:23;24.80;99.90
3626;DHT22;1827;50.534;8.316;2023-07-13T09:04:55;24.90;99.90
3626;DHT22;1827;50.534;8.316;2023-07-13T09:10:15;25.30;99.90
3626;DHT22;1827;50.534;8.316;2023-07-13T09:15:35;25.90;99.90
3626;DHT22;1827;50.534;8.316;2023-07-13T09:18:04;25.30;99.90
3626;DHT22;1827;50.534;8.316;2023-07-13T09:20:42;25.30;99.90
3626;DHT22;1827;50.534;8.316;2023-07-13T09:23:12;25.40;99.90
3626;DHT22;1827;50.534;8.316;2023-07-13T09:25:39;25.50;99.90
3626;DHT22;1827;50.534;8.316;2023-07-13T09:28:16;25.00;99.90
3626;DHT22;1827;50.534;8.316;2023-07-13T09:30:50;24.90;99.90
3626;DHT22;1827;50.534;8.316;2023-07-13T09:33:19;25.40;99.90
3626;DHT22;1827;50.534;8.316;2023-07-13T09:35:44;25.30;99.90
3626;DHT22;1827;50.534;8.316;2023-07-13T09:40:40;25.30;99.90
3626;DHT22;1827;50.534;8.316;2023-07-13T09:43:08;25.40;99.90
3626;DHT22;1827;50.534;8.316;2023-07-13T09:45:36;25.60;99.90
3626;DHT22;1827;50.534;8.316;2023-07-13T09:48:06;25.30;99.90
3626;DHT22;1827;50.534;8.316;2023-07-13T09:50:33;24.90;99.90
3626;DHT22;1827;50.534;8.316;2023-07-13T09:53:00;25.40;99.90
3626;DHT22;1827;50.534;8.316;2023-07-13T09:57:52;25.90;99.90
3626;DHT22;1827;50.534;8.316;2023-07-13T10:00:20;25.60;99.90
3626;DHT22;1827;50.534;8.316;2023-07-13T10:02:46;25.60;99.90
3626;DHT22;1827;50.534;8.316;2023-07-13T10:05:23;25.90;99.90
3626;DHT22;1827;50.534;8.316;2023-07-13T10:07:50;25.80;99.90
3626;DHT22;1827;50.534;8.316;2023-07-13T10:10:17;26.60;99.90
3626;DHT22;1827;50.534;8.316;2023-07-13T10:12:43;26.70;99.90
3626;DHT22;1827;50.534;8.316;2023-07-13T10:15:27;26.70;99.90
3626;DHT22;1827;50.534;8.316;2023-07-13T10:17:53;26.30;99.90
3626;DHT22;1827;50.534;8.316;2023-07-13T10:20:20;26.30;99.90
3626;DHT22;1827;50.534;8.316;2023-07-13T10:25:19;26.60;99.90
3626;DHT22;1827;50.534;8.316;2023-07-13T10:27:46;26.10;99.90
3626;DHT22;1827;50.534;8.316;2023-07-13T10:32:41;26.00;99.90
3626;DHT22;1827;50.534;8.316;2023-07-13T10:35:11;25.40;99.90
3626;DHT22;1827;50.534;8.316;2023-07-13T10:40:13;26.70;99.90
3626;DHT22;1827;50.534;8.316;2023-07-13T10:42:40;27.90;99.90
3626;DHT22;1827;50.534;8.316;2023-07-13T10:45:17;27.70;99.90
3626;DHT22;1827;50.534;8.316;2023-07-13T10:47:43;27.10;99.90
3626;DHT22;1827;50.534;8.316;2023-07-13T10:50:13;27.20;99.90
3626;DHT22;1827;50.534;8.316;2023-07-13T10:57:59;28.10;99.90
3626;DHT22;1827;50.534;8.316;2023-07-13T11:00:26;28.00;99.90
3626;DHT22;1827;50.534;8.316;2023-07-13T11:02:58;29.10;99.90
3626;DHT22;1827;50.534;8.316;2023-07-13T11:05:30;28.70;99.90
3626;DHT22;1827;50.534;8.316;2023-07-13T11:08:11;29.10;99.90
3626;DHT22;1827;50.534;8.316;2023-07-13T11:10:49;28.90;99.90
3626;DHT22;1827;50.534;8.316;2023-07-13T11:18:48;26.40;99.90
3626;DHT22;1827;50.534;8.316;2023-07-13T11:21:15;25.90;99.90
3626;DHT22;1827;50.534;8.316;2023-07-13T11:23:42;25.70;99.90
3626;DHT22;1827;50.534;8.316;2023-07-13T11:28:54;25.80;99.90
3626;DHT22;1827;50.534;8.316;2023-07-13T11:31:20;26.30;99.90
3626;DHT22;1827;50.534;8.316;2023-07-13T11:33:50;26.70;99.90
3626;DHT22;1827;50.534;8.316;2023-07-13T11:36:17;26.60;99.90
3626;DHT22;1827;50.534;8.316;2023-07-13T11:38:55;26.60;99.90
3626;DHT22;1827;50.534;8.316;2023-07-13T11:41:23;26.70;99.90
3626;DHT22;1827;50.534;8.316;2023-07-13T11:43:55;26.60;99.90
3626;DHT22;1827;50.534;8.316;2023-07-13T11:46:22;26.90;99.90
3626;DHT22;1827;50.534;8.316;2023-07-13T11:48:48;27.20;99.90
3626;DHT22;1827;50.534;8.316;2023-07-13T11:51:19;27.60;99.90
3626;DHT22;1827;50.534;8.316;2023-07-13T11:53:46;27.00;99.90
3626;DHT22;1827;50.534;8.316;2023-07-13T11:56:12;27.10;99.90
3626;DHT22;1827;50.534;8.316;2023-07-13T11:58:38;27.10;99.90
3626;DHT22;1827;50.534;8.316;2023-07-13T12:01:03;26.50;99.90
3626;DHT22;1827;50.534;8.316;2023-07-13T12:03:32;26.80;99.90
3626;DHT22;1827;50.534;8.316;2023-07-13T12:06:01;27.30;99.90
3626;DHT22;1827;50.534;8.316;2023-07-13T12:08:27;27.30;99.90
3626;DHT22;1827;50.534;8.316;2023-07-13T12:11:00;26.80;99.90
3626;DHT22;1827;50.534;8.316;2023-07-13T12:13:26;26.30;99.90
3626;DHT22;1827;50.534;8.316;2023-07-13T12:15:53;26.50;99.90
3626;DHT22;1827;50.534;8.316;2023-07-13T12:18:21;26.30;99.90
3626;DHT22;1827;50.534;8.316;2023-07-13T12:20:48;25.80;99.90
3626;DHT22;1827;50.534;8.316;2023-07-13T12:23:33;26.20;99.90
3626;DHT22;1827;50.534;8.316;2023-07-13T12:26:01;26.90;99.90
3626;DHT22;1827;50.534;8.316;2023-07-13T12:30:59;25.90;99.90
3626;DHT22;1827;50.534;8.316;2023-07-13T12:33:29;26.00;99.90
3626;DHT22;1827;50.534;8.316;2023-07-13T12:35:56;25.80;99.90
3626;DHT22;1827;50.534;8.316;2023-07-13T12:38:24;26.10;99.90
3626;DHT22;1827;50.534;8.316;2023-07-13T12:40:50;26.20;99.90
3626;DHT22;1827;50.534;8.316;2023-07-13T12:43:17;26.30;99.90
3626;DHT22;1827;50.534;8.316;2023-07-13T12:45:58;26.60;99.90
3626;DHT22;1827;50.534;8.316;2023-07-13T12:48:24;26.20;99.90
3626;DHT22;1827;50.534;8.316;2023-07-13T12:50:50;26.50;99.90
3626;DHT22;1827;50.534;8.316;2023-07-13T12:53:18;26.40;99.90
3626;DHT22;1827;50.534;8.316;2023-07-13T12:55:49;26.00;99.90
3626;DHT22;1827;50.534;8.316;2023-07-13T12:58:25;25.80;99.90
3626;DHT22;1827;50.534;8.316;2023-07-13T13:00:51;25.80;99.90
3626;DHT22;1827;50.534;8.316;2023-07-13T13:03:24;26.10;99.90
3626;DHT22;1827;50.534;8.316;2023-07-13T13:05:56;26.40;99.90
3626;DHT22;1827;50.534;8.316;2023-07-13T13:08:22;26.30;99.90
3626;DHT22;1827;50.534;8.316;2023-07-13T13:10:47;26.00;99.90
3626;DHT22;1827;50.534;8.316;2023-07-13T13:13:13;25.80;99.90
3626;DHT22;1827;50.534;8.316;2023-07-13T13:15:39;25.50;99.90
3626;DHT22;1827;50.534;8.316;2023-07-13T13:18:09;25.60;99.90
3626;DHT22;1827;50.534;8.316;2023-07-13T13:20:39;25.50;99.90
3626;DHT22;1827;50.534;8.316;2023-07-13T13:23:09;25.30;99.90
3626;DHT22;1827;50.534;8.316;2023-07-13T13:25:36;25.40;99.90
3626;DHT22;1827;50.534;8.316;2023-07-13T13:28:02;25.40;99.90
3626;DHT22;1827;50.534;8.316;2023-07-13T13:30:27;25.20;99.90
3626;DHT22;1827;50.534;8.316;2023-07-13T13:32:53;25.50;99.90
3626;DHT22;1827;50.534;8.316;2023-07-13T13:35:19;25.70;99.90
3626;DHT22;1827;50.534;8.316;2023-07-13T13:37:45;25.50;99.90
3626;DHT22;1827;50.534;8.316;2023-07-13T13:40:18;25.70;99.90
3626;DHT22;1827;50.534;8.316;2023-07-13T13:42:45;25.20;99.90
3626;DHT22;1827;50.534;8.316;2023-07-13T13:45:10;25.10;99.90
3626;DHT22;1827;50.534;8.316;2023-07-13T13:47:38;24.90;99.90
3626;DHT22;1827;50.534;8.316;2023-07-13T13:50:25;24.80;99.90
3626;DHT22;1827;50.534;8.316;2023-07-13T13:52:50;24.80;99.90
3626;DHT22;1827;50.534;8.316;2023-07-13T13:55:17;24.50;99.90
3626;DHT22;1827;50.534;8.316;2023-07-13T13:57:47;24.70;99.90
3626;DHT22;1827;50.534;8.316;2023-07-13T14:00:13;24.80;99.90
3626;DHT22;1827;50.534;8.316;2023-07-13T14:02:40;24.90;99.90
3626;DHT22;1827;50.534;8.316;2023-07-13T14:05:06;25.10;99.90
3626;DHT22;1827;50.534;8.316;2023-07-13T14:07:33;25.10;99.90
3626;DHT22;1827;50.534;8.316;2023-07-13T14:09:58;25.30;99.90
3626;DHT22;1827;50.534;8.316;2023-07-13T14:12:26;25.30;99.90
3626;DHT22;1827;50.534;8.316;2023-07-13T14:14:54;25.20;99.90
3626;DHT22;1827;50.534;8.316;2023-07-13T14:17:24;25.30;99.90
3626;DHT22;1827;50.534;8.316;2023-07-13T14:19:50;24.90;99.90
3626;DHT22;1827;50.534;8.316;2023-07-13T14:22:17;24.90;99.90
3626;DHT22;1827;50.534;8.316;2023-07-13T14:24:43;24.90;99.90
3626;DHT22;1827;50.534;8.316;2023-07-13T14:27:12;25.00;99.90
3626;DHT22;1827;50.534;8.316;2023-07-13T14:29:38;24.90;99.90
3626;DHT22;1827;50.534;8.316;2023-07-13T14:32:04;25.20;99.90
3626;DHT22;1827;50.534;8.316;2023-07-13T14:34:31;25.10;99.90
3626;DHT22;1827;50.534;8.316;2023-07-13T14:36:56;25.10;99.90
3626;DHT22;1827;50.534;8.316;2023-07-13T14:39:23;25.50;99.90
3626;DHT22;1827;50.534;8.316;2023-07-13T14:41:50;25.60;99.90
3626;DHT22;1827;50.534;8.316;2023-07-13T14:44:16;25.50;99.90
3626;DHT22;1827;50.534;8.316;2023-07-13T14:46:43;25.30;99.90
3626;DHT22;1827;50.534;8.316;2023-07-13T14:51:41;25.10;99.90
3626;DHT22;1827;50.534;8.316;2023-07-13T14:54:08;25.10;99.90
3626;DHT22;1827;50.534;8.316;2023-07-13T14:56:34;25.00;99.90
3626;DHT22;1827;50.534;8.316;2023-07-13T14:58:59;24.70;99.90
3626;DHT22;1827;50.534;8.316;2023-07-13T15:01:25;25.00;99.90
3626;DHT22;1827;50.534;8.316;2023-07-13T15:03:51;25.20;99.90
3626;DHT22;1827;50.534;8.316;2023-07-13T15:06:17;24.90;99.90
3626;DHT22;1827;50.534;8.316;2023-07-13T15:08:44;25.10;99.90
3626;DHT22;1827;50.534;8.316;2023-07-13T15:11:10;25.40;99.90
3626;DHT22;1827;50.534;8.316;2023-07-13T15:13:38;25.50;99.90
3626;DHT22;1827;50.534;8.316;2023-07-13T15:16:04;25.50;99.90
3626;DHT22;1827;50.534;8.316;2023-07-13T15:18:34;25.40;99.90
3626;DHT22;1827;50.534;8.316;2023-07-13T15:21:00;25.10;99.90
3626;DHT22;1827;50.534;8.316;2023-07-13T15:23:28;25.20;99.90
3626;DHT22;1827;50.534;8.316;2023-07-13T15:25:54;26.00;99.90
3626;DHT22;1827;50.534;8.316;2023-07-13T15:28:19;26.60;99.90
3626;DHT22;1827;50.534;8.316;2023-07-13T15:30:46;26.60;99.90
3626;DHT22;1827;50.534;8.316;2023-07-13T15:33:14;26.30;99.90
3626;DHT22;1827;50.534;8.316;2023-07-13T15:35:42;25.50;99.90
3626;DHT22;1827;50.534;8.316;2023-07-13T15:38:15;25.40;99.90
3626;DHT22;1827;50.534;8.316;2023-07-13T15:40:41;26.00;99.90
3626;DHT22;1827;50.534;8.316;2023-07-13T15:43:10;26.00;99.90
3626;DHT22;1827;50.534;8.316;2023-07-13T15:45:36;26.20;99.90
3626;DHT22;1827;50.534;8.316;2023-07-13T15:48:10;25.80;99.90
3626;DHT22;1827;50.534;8.316;2023-07-13T15:50:40;25.40;99.90
3626;DHT22;1827;50.534;8.316;2023-07-13T15:53:08;25.40;99.90
3626;DHT22;1827;50.534;8.316;2023-07-13T15:55:34;25.60;99.90
3626;DHT22;1827;50.534;8.316;2023-07-13T15:58:01;26.10;99.90
3626;DHT22;1827;50.534;8.316;2023-07-13T16:00:27;26.40;99.90
3626;DHT22;1827;50.534;8.316;2023-07-13T16:02:52;26.20;99.90
3626;DHT22;1827;50.534;8.316;2023-07-13T16:05:19;25.80;99.90
3626;DHT22;1827;50.534;8.316;2023-07-13T16:07:47;25.50;99.90
3626;DHT22;1827;50.534;8.316;2023-07-13T16:10:56;25.10;99.90
3626;DHT22;1827;50.534;8.316;2023-07-13T16:13:05;25.00;99.90
3626;DHT22;1827;50.534;8.316;2023-07-13T16:15:31;24.90;99.90
3626;DHT22;1827;50.534;8.316;2023-07-13T16:17:57;25.20;99.90
3626;DHT22;1827;50.534;8.316;2023-07-13T16:20:23;25.40;99.90
3626;DHT22;1827;50.534;8.316;2023-07-13T16:22:50;25.60;99.90
3626;DHT22;1827;50.534;8.316;2023-07-13T16:25:17;25.70;99.90
3626;DHT22;1827;50.534;8.316;2023-07-13T16:27:46;25.50;99.90
3626;DHT22;1827;50.534;8.316;2023-07-13T16:30:20;25.40;99.90
3626;DHT22;1827;50.534;8.316;2023-07-13T16:32:49;25.30;99.90
3626;DHT22;1827;50.534;8.316;2023-07-13T16:35:22;25.30;99.90
3626;DHT22;1827;50.534;8.316;2023-07-13T16:37:47;25.10;99.90
3626;DHT22;1827;50.534;8.316;2023-07-13T16:40:23;25.00;99.90
3626;DHT22;1827;50.534;8.316;2023-07-13T16:42:50;25.10;99.90
3626;DHT22;1827;50.534;8.316;2023-07-13T16:45:18;25.10;99.90
3626;DHT22;1827;50.534;8.316;2023-07-13T16:47:46;25.00;99.90